sensor_id;sensor_type;location;lat;lon;timestamp;pressure;altitude;pressure_sealevel;temperature;humidity
37904;BME280;23738;50.422;18.758;2023-04-26T00:00:06;97992.13;;;7.16;64.71
37904;BME280;23738;50.422;18.758;2023-04-26T00:02:34;97990.84;;;7.12;64.37
37904;BME280;23738;50.422;18.758;2023-04-26T00:05:02;97993.02;;;7.07;64.08
37904;BME280;23738;50.422;18.758;2023-04-26T00:07:31;97993.63;;;7.03;64.14
37904;BME280;23738;50.422;18.758;2023-04-26T00:09:58;97997.69;;;7.00;64.28
37904;BME280;23738;50.422;18.758;2023-04-26T00:12:25;98001.01;;;6.95;64.07
37904;BME280;23738;50.422;18.758;2023-04-26T00:14:52;98002.06;;;6.91;63.94
37904;BME280;23738;50.422;18.758;2023-04-26T00:17:19;98002.82;;;6.87;63.81
37904;BME280;23738;50.422;18.758;2023-04-26T00:19:47;98007.98;;;6.83;63.94
37904;BME280;23738;50.422;18.758;2023-04-26T00:22:14;98003.59;;;6.77;63.50
37904;BME280;23738;50.422;18.758;2023-04-26T00:24:41;98001.66;;;6.77;63.68
37904;BME280;23738;50.422;18.758;2023-04-26T00:27:09;98011.39;;;6.77;63.64
37904;BME280;23738;50.422;18.758;2023-04-26T00:29:36;98010.66;;;6.74;63.64
37904;BME280;23738;50.422;18.758;2023-04-26T00:32:04;98016.39;;;6.69;63.04
37904;BME280;23738;50.422;18.758;2023-04-26T00:34:35;98016.16;;;6.62;63.26
37904;BME280;23738;50.422;18.758;2023-04-26T00:37:03;98018.75;;;6.55;63.34
37904;BME280;23738;50.422;18.758;2023-04-26T00:39:30;98020.63;;;6.48;63.34
37904;BME280;23738;50.422;18.758;2023-04-26T00:41:58;98020.92;;;6.39;63.13
37904;BME280;23738;50.422;18.758;2023-04-26T00:44:45;98019.69;;;6.33;63.29
37904;BME280;23738;50.422;18.758;2023-04-26T00:47:28;98022.77;;;6.27;63.05
37904;BME280;23738;50.422;18.758;2023-04-26T00:50:23;98019.70;;;6.17;62.78
37904;BME280;23738;50.422;18.758;2023-04-26T00:53:07;98020.46;;;6.10;62.86
37904;BME280;23738;50.422;18.758;2023-04-26T00:55:34;98021.66;;;6.05;63.02
37904;BME280;23738;50.422;18.758;2023-04-26T00:58:19;98024.20;;;6.00;63.01
37904;BME280;23738;50.422;18.758;2023-04-26T01:01:02;98026.11;;;5.94;62.66
37904;BME280;23738;50.422;18.758;2023-04-26T01:03:49;98028.40;;;5.88;62.72
37904;BME280;23738;50.422;18.758;2023-04-26T01:06:19;98028.73;;;5.81;62.75
37904;BME280;23738;50.422;18.758;2023-04-26T01:08:48;98030.46;;;5.72;62.73
37904;BME280;23738;50.422;18.758;2023-04-26T01:11:17;98024.88;;;5.65;62.75
37904;BME280;23738;50.422;18.758;2023-04-26T01:14:14;98030.62;;;5.63;62.65
37904;BME280;23738;50.422;18.758;2023-04-26T01:16:42;98029.25;;;5.63;62.86
37904;BME280;23738;50.422;18.758;2023-04-26T01:19:12;98028.95;;;5.64;62.82
37904;BME280;23738;50.422;18.758;2023-04-26T01:21:42;98025.95;;;5.63;63.01
37904;BME280;23738;50.422;18.758;2023-04-26T01:24:12;98023.26;;;5.59;62.78
37904;BME280;23738;50.422;18.758;2023-04-26T01:26:47;98022.81;;;5.53;62.84
37904;BME280;23738;50.422;18.758;2023-04-26T01:29:15;98023.30;;;5.46;62.86
37904;BME280;23738;50.422;18.758;2023-04-26T01:31:45;98027.20;;;5.39;62.65
37904;BME280;23738;50.422;18.758;2023-04-26T01:34:14;98034.34;;;5.32;62.84
37904;BME280;23738;50.422;18.758;2023-04-26T01:36:41;98037.88;;;5.25;62.67
37904;BME280;23738;50.422;18.758;2023-04-26T01:39:09;98036.59;;;5.17;62.76
37904;BME280;23738;50.422;18.758;2023-04-26T01:41:56;98037.30;;;5.09;62.80
37904;BME280;23738;50.422;18.758;2023-04-26T01:44:26;98042.88;;;5.02;62.75
37904;BME280;23738;50.422;18.758;2023-04-26T01:47:13;98044.15;;;4.96;62.98
37904;BME280;23738;50.422;18.758;2023-04-26T01:49:44;98044.09;;;4.91;63.02
37904;BME280;23738;50.422;18.758;2023-04-26T01:52:13;98045.10;;;4.88;63.10
37904;BME280;23738;50.422;18.758;2023-04-26T01:55:01;98040.96;;;4.87;63.13
37904;BME280;23738;50.422;18.758;2023-04-26T01:57:30;98039.54;;;4.85;63.20
37904;BME280;23738;50.422;18.758;2023-04-26T01:59:58;98044.30;;;4.87;63.35
37904;BME280;23738;50.422;18.758;2023-04-26T02:02:31;98038.72;;;4.85;63.41
37904;BME280;23738;50.422;18.758;2023-04-26T02:04:59;98040.64;;;4.82;63.52
37904;BME280;23738;50.422;18.758;2023-04-26T02:07:30;98042.71;;;4.78;63.68
37904;BME280;23738;50.422;18.758;2023-04-26T02:10:07;98040.80;;;4.73;63.58
37904;BME280;23738;50.422;18.758;2023-04-26T02:12:36;98043.20;;;4.69;63.65
37904;BME280;23738;50.422;18.758;2023-04-26T02:15:04;98044.17;;;4.63;63.68
37904;BME280;23738;50.422;18.758;2023-04-26T02:17:33;98039.38;;;4.56;63.67
37904;BME280;23738;50.422;18.758;2023-04-26T02:20:00;98041.83;;;4.51;63.68
37904;BME280;23738;50.422;18.758;2023-04-26T02:22:28;98036.67;;;4.45;63.86
37904;BME280;23738;50.422;18.758;2023-04-26T02:24:55;98036.37;;;4.40;63.81
37904;BME280;23738;50.422;18.758;2023-04-26T02:27:24;98042.14;;;4.38;63.98
37904;BME280;23738;50.422;18.758;2023-04-26T02:30:11;98046.39;;;4.41;64.30
37904;BME280;23738;50.422;18.758;2023-04-26T02:32:40;98048.27;;;4.40;64.44
37904;BME280;23738;50.422;18.758;2023-04-26T02:35:08;98049.84;;;4.38;64.59
37904;BME280;23738;50.422;18.758;2023-04-26T02:37:36;98050.20;;;4.37;64.49
37904;BME280;23738;50.422;18.758;2023-04-26T02:40:06;98045.66;;;4.35;64.61
37904;BME280;23738;50.422;18.758;2023-04-26T02:42:36;98042.47;;;4.31;64.61
37904;BME280;23738;50.422;18.758;2023-04-26T02:45:11;98038.80;;;4.24;64.78
37904;BME280;23738;50.422;18.758;2023-04-26T02:47:38;98038.48;;;4.19;64.82
37904;BME280;23738;50.422;18.758;2023-04-26T02:50:28;98041.58;;;4.15;64.93
37904;BME280;23738;50.422;18.758;2023-04-26T02:53:04;98043.02;;;4.08;65.10
37904;BME280;23738;50.422;18.758;2023-04-26T02:55:59;98047.33;;;4.05;65.18
37904;BME280;23738;50.422;18.758;2023-04-26T02:58:46;98042.70;;;4.02;65.06
37904;BME280;23738;50.422;18.758;2023-04-26T03:01:34;98043.16;;;4.04;65.52
37904;BME280;23738;50.422;18.758;2023-04-26T03:04:11;98039.27;;;4.03;65.52
37904;BME280;23738;50.422;18.758;2023-04-26T03:07:06;98036.18;;;3.98;65.49
37904;BME280;23738;50.422;18.758;2023-04-26T03:09:35;98047.04;;;3.98;65.60
37904;BME280;23738;50.422;18.758;2023-04-26T03:12:25;98051.85;;;3.92;65.55
37904;BME280;23738;50.422;18.758;2023-04-26T03:14:54;98052.55;;;3.85;65.55
37904;BME280;23738;50.422;18.758;2023-04-26T03:17:52;98056.45;;;3.80;65.73
37904;BME280;23738;50.422;18.758;2023-04-26T03:20:40;98057.04;;;3.75;65.83
37904;BME280;23738;50.422;18.758;2023-04-26T03:23:42;98062.02;;;3.71;65.76
37904;BME280;23738;50.422;18.758;2023-04-26T03:27:01;98068.91;;;3.71;65.58
37904;BME280;23738;50.422;18.758;2023-04-26T03:29:48;98071.90;;;3.74;65.96
37904;BME280;23738;50.422;18.758;2023-04-26T03:32:35;98070.60;;;3.74;66.03
37904;BME280;23738;50.422;18.758;2023-04-26T03:35:38;98070.27;;;3.72;65.99
37904;BME280;23738;50.422;18.758;2023-04-26T03:38:16;98073.48;;;3.69;66.01
37904;BME280;23738;50.422;18.758;2023-04-26T03:40:51;98076.62;;;3.66;66.01
37904;BME280;23738;50.422;18.758;2023-04-26T03:43:33;98082.63;;;3.62;66.04
37904;BME280;23738;50.422;18.758;2023-04-26T03:46:00;98085.12;;;3.59;66.01
37904;BME280;23738;50.422;18.758;2023-04-26T03:48:43;98087.81;;;3.53;66.20
37904;BME280;23738;50.422;18.758;2023-04-26T03:51:14;98092.23;;;3.50;66.03
37904;BME280;23738;50.422;18.758;2023-04-26T03:53:49;98096.50;;;3.50;66.51
37904;BME280;23738;50.422;18.758;2023-04-26T03:56:32;98099.75;;;3.52;66.19
37904;BME280;23738;50.422;18.758;2023-04-26T03:58:59;98104.00;;;3.53;66.48
37904;BME280;23738;50.422;18.758;2023-04-26T04:01:28;98104.98;;;3.52;66.50
37904;BME280;23738;50.422;18.758;2023-04-26T04:04:04;98107.17;;;3.53;66.29
37904;BME280;23738;50.422;18.758;2023-04-26T04:06:47;98108.41;;;3.49;66.53
37904;BME280;23738;50.422;18.758;2023-04-26T04:09:23;98110.27;;;3.45;66.71
37904;BME280;23738;50.422;18.758;2023-04-26T04:11:50;98115.27;;;3.44;66.86
37904;BME280;23738;50.422;18.758;2023-04-26T04:14:18;98115.70;;;3.43;66.86
37904;BME280;23738;50.422;18.758;2023-04-26T04:16:49;98113.17;;;3.45;66.88
37904;BME280;23738;50.422;18.758;2023-04-26T04:19:17;98119.30;;;3.53;66.97
37904;BME280;23738;50.422;18.758;2023-04-26T04:21:45;98118.87;;;3.64;67.20
37904;BME280;23738;50.422;18.758;2023-04-26T04:24:21;98124.60;;;3.75;67.27
37904;BME280;23738;50.422;18.758;2023-04-26T04:26:49;98125.86;;;3.84;67.51
37904;BME280;23738;50.422;18.758;2023-04-26T04:29:18;98130.52;;;3.93;67.41
37904;BME280;23738;50.422;18.758;2023-04-26T04:31:46;98128.86;;;4.00;67.25
37904;BME280;23738;50.422;18.758;2023-04-26T04:34:34;98129.83;;;4.05;67.35
37904;BME280;23738;50.422;18.758;2023-04-26T04:37:02;98128.48;;;4.11;67.11
37904;BME280;23738;50.422;18.758;2023-04-26T04:39:32;98131.69;;;4.17;67.19
37904;BME280;23738;50.422;18.758;2023-04-26T04:42:01;98135.75;;;4.22;67.05
37904;BME280;23738;50.422;18.758;2023-04-26T04:44:29;98141.73;;;4.30;67.11
37904;BME280;23738;50.422;18.758;2023-04-26T04:46:59;98146.02;;;4.38;67.15
37904;BME280;23738;50.422;18.758;2023-04-26T04:49:28;98150.58;;;4.50;67.55
37904;BME280;23738;50.422;18.758;2023-04-26T04:52:04;98148.23;;;4.58;67.53
37904;BME280;23738;50.422;18.758;2023-04-26T04:54:32;98146.89;;;4.67;67.38
37904;BME280;23738;50.422;18.758;2023-04-26T04:57:14;98143.50;;;4.77;67.25
37904;BME280;23738;50.422;18.758;2023-04-26T04:59:42;98149.10;;;4.84;67.15
37904;BME280;23738;50.422;18.758;2023-04-26T05:02:09;98149.48;;;4.90;67.12
37904;BME280;23738;50.422;18.758;2023-04-26T05:04:37;98156.04;;;4.97;67.08
37904;BME280;23738;50.422;18.758;2023-04-26T05:07:24;98155.05;;;4.99;67.15
37904;BME280;23738;50.422;18.758;2023-04-26T05:10:27;98162.42;;;5.07;66.90
37904;BME280;23738;50.422;18.758;2023-04-26T05:13:14;98163.59;;;5.13;67.02
37904;BME280;23738;50.422;18.758;2023-04-26T05:16:01;98156.89;;;5.26;66.98
37904;BME280;23738;50.422;18.758;2023-04-26T05:19:28;98162.63;;;5.43;66.92
37904;BME280;23738;50.422;18.758;2023-04-26T05:22:15;98161.09;;;5.59;66.91
37904;BME280;23738;50.422;18.758;2023-04-26T05:25:06;98162.47;;;5.65;66.72
37904;BME280;23738;50.422;18.758;2023-04-26T05:27:36;98162.50;;;5.77;66.60
37904;BME280;23738;50.422;18.758;2023-04-26T05:30:24;98161.52;;;5.90;66.60
37904;BME280;23738;50.422;18.758;2023-04-26T05:33:31;98160.14;;;6.02;66.28
37904;BME280;23738;50.422;18.758;2023-04-26T05:36:18;98162.77;;;6.08;66.04
37904;BME280;23738;50.422;18.758;2023-04-26T05:39:01;98163.46;;;6.13;65.88
37904;BME280;23738;50.422;18.758;2023-04-26T05:41:36;98160.15;;;6.17;65.55
37904;BME280;23738;50.422;18.758;2023-04-26T05:44:23;98166.59;;;6.22;65.43
37904;BME280;23738;50.422;18.758;2023-04-26T05:47:06;98166.25;;;6.32;65.33
37904;BME280;23738;50.422;18.758;2023-04-26T05:49:34;98165.33;;;6.41;65.19
37904;BME280;23738;50.422;18.758;2023-04-26T05:52:21;98168.23;;;6.47;65.15
37904;BME280;23738;50.422;18.758;2023-04-26T05:55:09;98166.06;;;6.55;65.10
37904;BME280;23738;50.422;18.758;2023-04-26T05:58:11;98168.56;;;6.66;64.86
37904;BME280;23738;50.422;18.758;2023-04-26T06:01:19;98162.62;;;6.79;64.84
37904;BME280;23738;50.422;18.758;2023-04-26T06:04:03;98174.04;;;6.99;64.71
37904;BME280;23738;50.422;18.758;2023-04-26T06:06:51;98171.29;;;7.10;64.79
37904;BME280;23738;50.422;18.758;2023-04-26T06:10:18;98178.98;;;7.32;64.68
37904;BME280;23738;50.422;18.758;2023-04-26T06:13:25;98183.38;;;7.54;64.53
37904;BME280;23738;50.422;18.758;2023-04-26T06:15:53;98184.36;;;7.72;64.33
37904;BME280;23738;50.422;18.758;2023-04-26T06:18:20;98188.20;;;7.84;64.26
37904;BME280;23738;50.422;18.758;2023-04-26T06:21:08;98194.06;;;7.98;63.96
37904;BME280;23738;50.422;18.758;2023-04-26T06:24:35;98196.98;;;8.12;64.08
37904;BME280;23738;50.422;18.758;2023-04-26T06:27:22;98203.44;;;8.35;64.03
37904;BME280;23738;50.422;18.758;2023-04-26T06:30:10;98205.94;;;8.51;63.78
37904;BME280;23738;50.422;18.758;2023-04-26T06:33:17;98206.73;;;8.60;63.18
37904;BME280;23738;50.422;18.758;2023-04-26T06:36:05;98198.45;;;8.54;62.73
37904;BME280;23738;50.422;18.758;2023-04-26T06:38:52;98199.25;;;8.65;62.82
37904;BME280;23738;50.422;18.758;2023-04-26T06:42:00;98198.95;;;8.77;62.67
37904;BME280;23738;50.422;18.758;2023-04-26T06:44:47;98197.88;;;8.84;62.67
37904;BME280;23738;50.422;18.758;2023-04-26T06:47:35;98192.64;;;9.01;62.15
37904;BME280;23738;50.422;18.758;2023-04-26T06:50:03;98192.64;;;9.16;62.18
37904;BME280;23738;50.422;18.758;2023-04-26T06:52:31;98189.94;;;9.30;61.95
37904;BME280;23738;50.422;18.758;2023-04-26T06:55:01;98198.05;;;9.35;61.55
37904;BME280;23738;50.422;18.758;2023-04-26T06:57:29;98197.56;;;9.39;61.41
37904;BME280;23738;50.422;18.758;2023-04-26T07:00:16;98196.66;;;9.54;61.48
37904;BME280;23738;50.422;18.758;2023-04-26T07:03:04;98199.73;;;9.73;61.01
37904;BME280;23738;50.422;18.758;2023-04-26T07:05:31;98198.01;;;9.61;60.88
37904;BME280;23738;50.422;18.758;2023-04-26T07:08:18;98200.66;;;9.63;60.97
37904;BME280;23738;50.422;18.758;2023-04-26T07:11:55;98200.82;;;9.62;60.62
37904;BME280;23738;50.422;18.758;2023-04-26T07:14:42;98202.88;;;9.67;60.54
37904;BME280;23738;50.422;18.758;2023-04-26T07:17:09;98205.05;;;9.51;60.19
37904;BME280;23738;50.422;18.758;2023-04-26T07:19:57;98210.13;;;9.36;59.72
37904;BME280;23738;50.422;18.758;2023-04-26T07:23:24;98213.67;;;9.11;59.71
37904;BME280;23738;50.422;18.758;2023-04-26T07:26:12;98213.16;;;8.95;59.80
37904;BME280;23738;50.422;18.758;2023-04-26T07:29:19;98214.05;;;8.75;59.42
37904;BME280;23738;50.422;18.758;2023-04-26T07:32:06;98217.56;;;8.92;60.05
37904;BME280;23738;50.422;18.758;2023-04-26T07:34:54;98214.27;;;9.32;59.04
37904;BME280;23738;50.422;18.758;2023-04-26T07:37:43;98216.08;;;9.67;59.04
37904;BME280;23738;50.422;18.758;2023-04-26T07:40:31;98213.61;;;9.81;57.76
37904;BME280;23738;50.422;18.758;2023-04-26T07:43:58;98217.53;;;9.98;57.33
37904;BME280;23738;50.422;18.758;2023-04-26T07:46:26;98217.25;;;10.21;57.36
37904;BME280;23738;50.422;18.758;2023-04-26T07:48:53;98216.49;;;10.43;56.50
37904;BME280;23738;50.422;18.758;2023-04-26T07:51:21;98222.90;;;10.66;56.19
37904;BME280;23738;50.422;18.758;2023-04-26T07:53:48;98220.25;;;10.56;55.76
37904;BME280;23738;50.422;18.758;2023-04-26T07:56:16;98226.35;;;10.28;56.07
37904;BME280;23738;50.422;18.758;2023-04-26T07:59:03;98224.05;;;10.14;56.06
37904;BME280;23738;50.422;18.758;2023-04-26T08:02:00;98230.30;;;9.92;55.91
37904;BME280;23738;50.422;18.758;2023-04-26T08:05:08;98238.23;;;9.74;56.21
37904;BME280;23738;50.422;18.758;2023-04-26T08:08:05;98240.83;;;9.67;56.64
37904;BME280;23738;50.422;18.758;2023-04-26T08:10:32;98237.00;;;9.92;56.14
37904;BME280;23738;50.422;18.758;2023-04-26T08:13:00;98230.83;;;10.09;55.82
37904;BME280;23738;50.422;18.758;2023-04-26T08:15:47;98228.64;;;10.46;56.43
37904;BME280;23738;50.422;18.758;2023-04-26T08:18:15;98231.13;;;10.60;55.78
37904;BME280;23738;50.422;18.758;2023-04-26T08:20:42;98239.41;;;10.40;55.53
37904;BME280;23738;50.422;18.758;2023-04-26T08:23:10;98238.70;;;10.28;55.37
37904;BME280;23738;50.422;18.758;2023-04-26T08:25:37;98235.52;;;10.53;54.22
37904;BME280;23738;50.422;18.758;2023-04-26T08:28:24;98234.41;;;10.77;53.94
37904;BME280;23738;50.422;18.758;2023-04-26T08:31:31;98241.88;;;10.71;54.03
37904;BME280;23738;50.422;18.758;2023-04-26T08:33:59;98244.14;;;10.49;54.88
37904;BME280;23738;50.422;18.758;2023-04-26T08:36:26;98244.09;;;10.36;54.61
37904;BME280;23738;50.422;18.758;2023-04-26T08:38:54;98243.04;;;10.26;54.27
37904;BME280;23738;50.422;18.758;2023-04-26T08:41:23;98244.63;;;10.26;54.36
37904;BME280;23738;50.422;18.758;2023-04-26T08:44:11;98244.73;;;10.17;53.77
37904;BME280;23738;50.422;18.758;2023-04-26T08:47:43;98240.64;;;10.32;53.80
37904;BME280;23738;50.422;18.758;2023-04-26T08:50:12;98239.61;;;10.42;53.36
37904;BME280;23738;50.422;18.758;2023-04-26T08:53:00;98242.95;;;10.23;52.80
37904;BME280;23738;50.422;18.758;2023-04-26T08:55:48;98255.00;;;10.15;52.85
37904;BME280;23738;50.422;18.758;2023-04-26T08:58:35;98242.32;;;10.47;53.58
37904;BME280;23738;50.422;18.758;2023-04-26T09:01:59;98235.77;;;11.14;53.70
37904;BME280;23738;50.422;18.758;2023-04-26T09:05:08;98236.33;;;11.45;53.15
37904;BME280;23738;50.422;18.758;2023-04-26T09:07:40;98239.09;;;11.32;52.62
37904;BME280;23738;50.422;18.758;2023-04-26T09:10:10;98244.30;;;11.01;52.01
37904;BME280;23738;50.422;18.758;2023-04-26T09:12:38;98248.48;;;10.64;51.40
37904;BME280;23738;50.422;18.758;2023-04-26T09:15:07;98254.33;;;10.40;51.72
37904;BME280;23738;50.422;18.758;2023-04-26T09:17:37;98253.96;;;10.26;51.24
37904;BME280;23738;50.422;18.758;2023-04-26T09:25:50;98264.85;;;9.95;50.70
37904;BME280;23738;50.422;18.758;2023-04-26T09:28:23;98261.38;;;9.82;50.12
37904;BME280;23738;50.422;18.758;2023-04-26T09:30:53;98256.77;;;9.89;51.00
37904;BME280;23738;50.422;18.758;2023-04-26T09:33:22;98264.20;;;10.00;48.52
37904;BME280;23738;50.422;18.758;2023-04-26T09:35:51;98268.26;;;9.92;49.80
37904;BME280;23738;50.422;18.758;2023-04-26T09:38:20;98270.81;;;9.86;50.20
37904;BME280;23738;50.422;18.758;2023-04-26T09:40:50;98267.52;;;9.81;50.35
37904;BME280;23738;50.422;18.758;2023-04-26T09:43:20;98263.47;;;9.96;49.87
37904;BME280;23738;50.422;18.758;2023-04-26T09:45:51;98263.90;;;10.43;49.76
37904;BME280;23738;50.422;18.758;2023-04-26T09:48:22;98266.59;;;10.69;46.56
37904;BME280;23738;50.422;18.758;2023-04-26T09:50:54;98263.38;;;10.44;46.13
37904;BME280;23738;50.422;18.758;2023-04-26T09:53:32;98262.43;;;10.15;47.58
37904;BME280;23738;50.422;18.758;2023-04-26T09:56:11;98259.38;;;10.01;46.74
37904;BME280;23738;50.422;18.758;2023-04-26T09:58:56;98255.50;;;10.24;47.92
37904;BME280;23738;50.422;18.758;2023-04-26T10:01:27;98250.70;;;10.50;47.15
37904;BME280;23738;50.422;18.758;2023-04-26T10:03:58;98260.39;;;10.62;48.82
37904;BME280;23738;50.422;18.758;2023-04-26T10:06:29;98266.88;;;10.70;46.78
37904;BME280;23738;50.422;18.758;2023-04-26T10:09:01;98279.75;;;10.37;46.31
37904;BME280;23738;50.422;18.758;2023-04-26T10:11:34;98280.52;;;10.17;48.29
37904;BME280;23738;50.422;18.758;2023-04-26T10:14:05;98270.29;;;10.08;49.42
37904;BME280;23738;50.422;18.758;2023-04-26T10:16:36;98264.54;;;10.05;49.84
37904;BME280;23738;50.422;18.758;2023-04-26T10:19:06;98263.44;;;10.11;49.67
37904;BME280;23738;50.422;18.758;2023-04-26T10:21:39;98261.77;;;10.12;48.54
37904;BME280;23738;50.422;18.758;2023-04-26T10:24:11;98263.60;;;10.06;47.66
37904;BME280;23738;50.422;18.758;2023-04-26T10:26:52;98261.73;;;10.09;48.51
37904;BME280;23738;50.422;18.758;2023-04-26T10:29:25;98259.80;;;10.48;48.11
37904;BME280;23738;50.422;18.758;2023-04-26T10:32:09;98261.59;;;10.89;47.04
37904;BME280;23738;50.422;18.758;2023-04-26T10:34:43;98268.42;;;11.30;46.31
37904;BME280;23738;50.422;18.758;2023-04-26T10:37:14;98270.77;;;11.55;44.95
37904;BME280;23738;50.422;18.758;2023-04-26T10:39:45;98273.59;;;11.41;45.91
37904;BME280;23738;50.422;18.758;2023-04-26T10:42:26;98276.38;;;11.39;47.12
37904;BME280;23738;50.422;18.758;2023-04-26T10:44:58;98270.03;;;11.70;45.44
37904;BME280;23738;50.422;18.758;2023-04-26T10:47:30;98263.31;;;11.98;45.21
37904;BME280;23738;50.422;18.758;2023-04-26T10:50:06;98256.48;;;12.28;45.84
37904;BME280;23738;50.422;18.758;2023-04-26T10:52:37;98255.38;;;12.63;46.27
37904;BME280;23738;50.422;18.758;2023-04-26T10:55:08;98263.86;;;12.91;42.54
37904;BME280;23738;50.422;18.758;2023-04-26T10:57:51;98260.55;;;12.69;40.59
37904;BME280;23738;50.422;18.758;2023-04-26T11:00:31;98261.67;;;12.40;41.81
37904;BME280;23738;50.422;18.758;2023-04-26T11:03:08;98261.49;;;12.42;43.99
37904;BME280;23738;50.422;18.758;2023-04-26T11:08:32;98258.11;;;13.03;43.98
37904;BME280;23738;50.422;18.758;2023-04-26T11:11:11;98261.09;;;13.16;42.97
37904;BME280;23738;50.422;18.758;2023-04-26T11:13:42;98259.69;;;12.97;42.69
37904;BME280;23738;50.422;18.758;2023-04-26T11:16:12;98267.67;;;12.63;42.43
37904;BME280;23738;50.422;18.758;2023-04-26T11:18:43;98272.03;;;12.29;42.41
37904;BME280;23738;50.422;18.758;2023-04-26T11:21:13;98274.05;;;12.02;43.80
37904;BME280;23738;50.422;18.758;2023-04-26T11:23:53;98271.56;;;11.97;42.94
37904;BME280;23738;50.422;18.758;2023-04-26T11:26:23;98268.66;;;12.18;43.42
37904;BME280;23738;50.422;18.758;2023-04-26T11:28:59;98283.75;;;12.23;42.18
37904;BME280;23738;50.422;18.758;2023-04-26T11:31:30;98279.29;;;12.02;43.52
37904;BME280;23738;50.422;18.758;2023-04-26T11:34:04;98276.83;;;11.86;42.64
37904;BME280;23738;50.422;18.758;2023-04-26T11:36:36;98282.29;;;11.60;42.42
37904;BME280;23738;50.422;18.758;2023-04-26T11:39:07;98280.73;;;11.52;43.97
37904;BME280;23738;50.422;18.758;2023-04-26T11:41:36;98277.13;;;11.68;43.80
37904;BME280;23738;50.422;18.758;2023-04-26T11:44:06;98266.75;;;11.89;42.99
37904;BME280;23738;50.422;18.758;2023-04-26T11:46:35;98270.80;;;12.13;42.84
37904;BME280;23738;50.422;18.758;2023-04-26T11:49:07;98269.39;;;12.13;42.77
37904;BME280;23738;50.422;18.758;2023-04-26T11:51:38;98269.96;;;12.07;43.71
37904;BME280;23738;50.422;18.758;2023-04-26T11:54:07;98275.86;;;11.99;42.66
37904;BME280;23738;50.422;18.758;2023-04-26T11:56:37;98279.97;;;11.71;42.68
37904;BME280;23738;50.422;18.758;2023-04-26T11:59:07;98289.09;;;11.43;42.96
37904;BME280;23738;50.422;18.758;2023-04-26T12:01:37;98292.64;;;11.27;44.36
37904;BME280;23738;50.422;18.758;2023-04-26T12:04:09;98291.64;;;11.33;44.30
37904;BME280;23738;50.422;18.758;2023-04-26T12:06:44;98285.69;;;11.65;43.54
37904;BME280;23738;50.422;18.758;2023-04-26T12:09:14;98274.73;;;12.03;44.48
37904;BME280;23738;50.422;18.758;2023-04-26T12:11:52;98270.86;;;12.51;44.71
37904;BME280;23738;50.422;18.758;2023-04-26T12:14:21;98273.04;;;12.95;44.57
37904;BME280;23738;50.422;18.758;2023-04-26T12:16:51;98274.91;;;13.03;44.40
37904;BME280;23738;50.422;18.758;2023-04-26T12:19:24;98278.82;;;12.84;42.16
37904;BME280;23738;50.422;18.758;2023-04-26T12:30:58;98278.77;;;12.22;43.14
37904;BME280;23738;50.422;18.758;2023-04-26T12:33:31;98280.75;;;12.03;42.54
37904;BME280;23738;50.422;18.758;2023-04-26T12:36:06;98280.77;;;11.79;42.88
37904;BME280;23738;50.422;18.758;2023-04-26T12:38:43;98282.98;;;11.56;42.70
37904;BME280;23738;50.422;18.758;2023-04-26T12:45:01;98293.70;;;11.30;43.74
37904;BME280;23738;50.422;18.758;2023-04-26T12:50:42;98295.42;;;11.45;43.03
37904;BME280;23738;50.422;18.758;2023-04-26T12:53:13;98290.75;;;11.51;44.19
37904;BME280;23738;50.422;18.758;2023-04-26T12:55:44;98288.55;;;11.70;43.82
37904;BME280;23738;50.422;18.758;2023-04-26T12:58:14;98284.09;;;12.03;44.13
37904;BME280;23738;50.422;18.758;2023-04-26T13:00:43;98279.73;;;12.40;43.05
37904;BME280;23738;50.422;18.758;2023-04-26T13:03:12;98278.02;;;12.63;41.90
37904;BME280;23738;50.422;18.758;2023-04-26T13:05:42;98283.02;;;12.88;42.98
37904;BME280;23738;50.422;18.758;2023-04-26T13:08:12;98281.45;;;12.98;41.75
37904;BME280;23738;50.422;18.758;2023-04-26T13:10:44;98286.98;;;12.88;41.37
37904;BME280;23738;50.422;18.758;2023-04-26T13:13:14;98286.15;;;12.65;42.57
37904;BME280;23738;50.422;18.758;2023-04-26T13:15:43;98289.23;;;12.49;41.91
37904;BME280;23738;50.422;18.758;2023-04-26T13:18:15;98293.71;;;12.19;40.84
37904;BME280;23738;50.422;18.758;2023-04-26T13:20:45;98301.29;;;11.72;41.34
37904;BME280;23738;50.422;18.758;2023-04-26T13:23:15;98308.55;;;11.40;42.29
37904;BME280;23738;50.422;18.758;2023-04-26T13:25:45;98322.94;;;11.06;42.65
37904;BME280;23738;50.422;18.758;2023-04-26T13:28:14;98329.11;;;10.68;43.25
37904;BME280;23738;50.422;18.758;2023-04-26T13:30:44;98334.46;;;10.34;43.86
37904;BME280;23738;50.422;18.758;2023-04-26T13:33:13;98336.25;;;10.13;43.80
37904;BME280;23738;50.422;18.758;2023-04-26T13:35:42;98329.83;;;10.10;43.76
37904;BME280;23738;50.422;18.758;2023-04-26T13:38:12;98327.36;;;10.27;43.89
37904;BME280;23738;50.422;18.758;2023-04-26T13:40:41;98317.96;;;10.67;44.22
37904;BME280;23738;50.422;18.758;2023-04-26T13:43:10;98315.80;;;11.15;44.07
37904;BME280;23738;50.422;18.758;2023-04-26T13:45:40;98308.38;;;11.53;43.94
37904;BME280;23738;50.422;18.758;2023-04-26T13:48:09;98310.33;;;11.81;44.33
37904;BME280;23738;50.422;18.758;2023-04-26T13:50:40;98310.66;;;12.07;43.95
37904;BME280;23738;50.422;18.758;2023-04-26T13:53:09;98304.37;;;12.32;42.92
37904;BME280;23738;50.422;18.758;2023-04-26T13:55:38;98317.21;;;12.41;40.76
37904;BME280;23738;50.422;18.758;2023-04-26T13:58:07;98317.55;;;12.39;40.23
37904;BME280;23738;50.422;18.758;2023-04-26T14:00:37;98323.94;;;12.36;41.01
37904;BME280;23738;50.422;18.758;2023-04-26T14:03:06;98324.70;;;12.38;40.85
37904;BME280;23738;50.422;18.758;2023-04-26T14:05:35;98322.52;;;12.28;40.52
37904;BME280;23738;50.422;18.758;2023-04-26T14:08:05;98321.91;;;12.14;41.34
37904;BME280;23738;50.422;18.758;2023-04-26T14:10:35;98334.06;;;12.15;41.19